Time;durP1;ratioP1;P1;durP2;ratioP2;P2;SDS_P1;SDS_P2;PMS_P1;PMS_P2;Temp;Humidity;BMP_temperature;BMP_pressure;BME280_temperature;BME280_humidity;BME280_pressure;Samples;Min_cycle;Max_cycle;Signal;HPM_P1;HPM_P2
2022/04/06 00:01:57;;;;;;;32.80;17.93;;;;;;;6.90;72.03;98735.59;5012806;28;20406;-85
2022/04/06 00:04:23;;;;;;;37.23;18.40;;;;;;;6.73;73.46;98751.56;5051559;28;20177;-87
2022/04/06 00:06:52;;;;;;;27.17;15.53;;;;;;;6.86;73.16;98763.91;5051174;28;20181;-85
2022/04/06 00:09:19;;;;;;;29.97;15.77;;;;;;;6.50;74.20;98731.19;5051999;28;20951;-85
2022/04/06 00:11:44;;;;;;;31.37;16.80;;;;;;;5.53;74.85;98573.88;5033159;28;20420;-84
2022/04/06 00:14:10;;;;;;;31.70;16.83;;;;;;;6.19;74.21;98679.34;5041503;28;21084;-85
2022/04/06 00:16:35;;;;;;;31.43;16.83;;;;;;;5.34;74.23;98537.84;5051414;28;20193;-85
2022/04/06 00:19:01;;;;;;;32.20;19.97;;;;;;;6.06;74.23;98682.91;5050184;28;20162;-86
2022/04/06 00:21:27;;;;;;;30.83;18.10;;;;;;;6.54;75.13;98779.97;5047218;28;20597;-86
2022/04/06 00:23:53;;;;;;;28.53;16.20;;;;;;;6.87;75.53;98820.97;5031561;28;20289;-86
2022/04/06 00:26:18;;;;;;;28.90;15.57;;;;;;;6.36;75.48;98741.34;5031367;28;20409;-84
2022/04/06 00:28:44;;;;;;;26.47;16.13;;;;;;;5.15;75.66;98522.66;5030463;28;20166;-84
2022/04/06 00:31:10;;;;;;;26.10;15.47;;;;;;;6.61;76.58;98807.16;5030170;28;20634;-86
2022/04/06 00:33:35;;;;;;;27.97;15.43;;;;;;;6.35;76.93;98775.69;5031003;28;20170;-86
2022/04/06 00:36:01;;;;;;;30.40;15.67;;;;;;;6.90;77.52;98881.50;5031465;28;20162;-84
2022/04/06 00:38:26;;;;;;;29.10;16.17;;;;;;;7.23;79.01;98966.22;5030991;28;20193;-84
2022/04/06 00:40:51;;;;;;;25.67;15.40;;;;;;;5.30;78.58;98635.50;5031373;28;20205;-85
2022/04/06 00:43:17;;;;;;;26.47;15.63;;;;;;;7.21;80.91;98975.34;5031162;28;20561;-85
2022/04/06 00:45:43;;;;;;;27.57;15.43;;;;;;;7.34;81.52;98961.72;5031203;28;20258;-85
2022/04/06 00:48:09;;;;;;;30.30;17.20;;;;;;;5.87;81.51;98722.97;5051337;28;20217;-86
2022/04/06 00:50:35;;;;;;;29.17;16.77;;;;;;;6.10;82.95;98749.25;5049596;28;20492;-85
2022/04/06 00:53:01;;;;;;;30.00;17.27;;;;;;;6.90;83.01;98896.59;5051210;28;20992;-85
2022/04/06 00:55:32;;;;;;;27.37;15.77;;;;;;;6.22;84.46;98825.25;5051700;28;20576;-84
2022/04/06 00:57:58;;;;;;;30.37;16.60;;;;;;;7.03;85.77;98964.38;5052984;28;20484;-86
2022/04/06 01:00:25;;;;;;;30.93;16.60;;;;;;;7.13;85.59;98969.06;5052477;28;20852;-85
2022/04/06 01:02:51;;;;;;;28.67;16.27;;;;;;;5.96;84.66;98786.22;5051404;28;20415;-86
2022/04/06 01:05:16;;;;;;;30.50;15.00;;;;;;;5.12;84.53;98657.09;5050211;28;20804;-84
2022/04/06 01:07:47;;;;;;;25.07;14.97;;;;;;;5.57;84.88;98729.78;5051260;28;20181;-85
2022/04/06 01:10:13;;;;;;;27.43;15.47;;;;;;;4.96;83.75;98614.44;5054731;28;20169;-84
2022/04/06 01:12:39;;;;;;;23.43;15.30;;;;;;;5.46;82.36;98712.41;5053972;28;20765;-85
2022/04/06 01:15:06;;;;;;;25.53;16.00;;;;;;;5.92;82.49;98796.91;5055132;28;20193;-84
2022/04/06 01:17:33;;;;;;;27.77;16.03;;;;;;;6.89;82.30;98925.94;5054812;28;20471;-84
2022/04/06 01:20:00;;;;;;;31.87;19.27;;;;;;;7.00;81.43;98955.00;5053825;28;20989;-86
2022/04/06 01:22:26;;;;;;;40.77;23.27;;;;;;;6.53;80.94;98854.53;5053446;28;20908;-85
2022/04/06 01:24:52;;;;;;;36.33;21.10;;;;;;;5.74;80.06;98711.38;5053964;28;20420;-85
2022/04/06 01:27:17;;;;;;;38.37;21.90;;;;;;;4.99;79.17;98567.81;5054544;28;20242;-84
2022/04/06 01:29:44;;;;;;;35.27;20.57;;;;;;;5.10;79.70;98628.56;5053980;28;20177;-85
2022/04/06 01:32:16;;;;;;;35.73;20.07;;;;;;;5.97;79.51;98770.38;5054465;28;20195;-85
2022/04/06 01:34:42;;;;;;;34.67;18.53;;;;;;;6.48;79.33;98850.06;5054618;28;20404;-86
2022/04/06 01:37:08;;;;;;;36.07;20.00;;;;;;;5.48;79.54;98708.34;5054312;28;20908;-85
2022/04/06 01:39:35;;;;;;;36.50;19.43;;;;;;;6.90;80.38;98980.50;5055613;28;20174;-85
2022/04/06 01:42:02;;;;;;;29.77;16.90;;;;;;;6.03;84.08;98921.44;5054789;28;20569;-85
2022/04/06 01:44:28;;;;;;;29.57;16.57;;;;;;;6.25;85.55;98991.28;5054345;28;20404;-87
2022/04/06 01:46:54;;;;;;;28.53;16.33;;;;;;;4.23;87.11;98684.75;5052687;28;20471;-87
2022/04/06 01:52:13;;;;;;;32.13;16.77;;;;;;;5.74;88.64;98946.59;5056153;28;20172;-85
2022/04/06 01:54:47;;;;;;;28.83;16.60;;;;;;;6.21;88.04;98989.38;5054787;28;20404;-86
2022/04/06 01:57:14;;;;;;;31.77;16.90;;;;;;;6.13;86.99;98966.34;5052754;28;20511;-86
2022/04/06 01:59:41;;;;;;;26.50;15.87;;;;;;;5.25;86.68;98830.94;5052303;28;20430;-87
2022/04/06 02:02:08;;;;;;;30.17;15.93;;;;;;;6.00;87.67;98985.72;5038085;28;20426;-86
2022/04/06 02:04:33;;;;;;;29.97;15.37;;;;;;;4.74;86.96;98763.72;5052966;28;20423;-85
2022/04/06 02:06:59;;;;;;;30.83;16.30;;;;;;;5.82;86.67;98930.28;5053797;28;20433;-85
2022/04/06 02:09:24;;;;;;;27.23;15.00;;;;;;;4.88;86.21;98786.19;5053710;28;20170;-85
2022/04/06 02:11:50;;;;;;;32.10;16.17;;;;;;;6.38;86.21;98993.66;5054514;28;20172;-86
2022/04/06 02:14:16;;;;;;;28.70;15.10;;;;;;;4.54;86.31;98724.13;5054491;28;20174;-89
2022/04/06 02:16:42;;;;;;;25.83;15.13;;;;;;;4.10;86.83;98658.16;5038317;28;20464;-87
2022/04/06 02:19:08;;;;;;;28.60;15.27;;;;;;;6.02;87.59;98991.66;5034515;28;20170;-84
2022/04/06 02:21:34;;;;;;;30.53;15.87;;;;;;;5.65;87.54;98910.94;5033481;28;20411;-86
2022/04/06 02:24:00;;;;;;;26.10;14.90;;;;;;;6.14;86.45;98998.25;5034691;28;20196;-86
2022/04/06 02:26:27;;;;;;;26.60;15.03;;;;;;;5.62;86.17;98890.66;5033466;28;20645;-87
2022/04/06 02:28:53;;;;;;;26.83;14.67;;;;;;;4.70;84.67;98711.66;5034249;28;20663;-85
2022/04/06 02:31:19;;;;;;;27.57;15.63;;;;;;;5.32;86.50;98888.22;5033503;28;20401;-85
2022/04/06 02:33:44;;;;;;;32.03;14.53;;;;;;;5.28;86.82;98903.88;5048972;28;20817;-86
2022/04/06 02:36:09;;;;;;;28.17;14.90;;;;;;;3.94;87.96;98706.50;5033829;28;20173;-86
2022/04/06 02:38:38;;;;;;;26.97;15.23;;;;;;;5.08;87.65;98874.28;5048236;28;20184;-87
2022/04/06 02:41:05;;;;;;;26.33;15.40;;;;;;;4.64;87.57;98779.00;5054431;28;20157;-85
2022/04/06 02:43:31;;;;;;;28.63;15.63;;;;;;;3.50;87.45;98595.44;5053991;28;20412;-85
2022/04/06 02:45:57;;;;;;;28.60;16.13;;;;;;;4.37;86.29;98712.28;5053330;28;20430;-86
2022/04/06 02:48:22;;;;;;;27.13;15.30;;;;;;;5.16;85.38;98845.50;5054618;28;20172;-86
2022/04/06 02:50:48;;;;;;;30.17;15.83;;;;;;;4.49;85.63;98759.75;5054523;28;20189;-86
2022/04/06 02:53:13;;;;;;;45.80;27.17;;;;;;;5.08;87.82;98926.97;5054802;28;20196;-85
2022/04/06 02:55:38;;;;;;;34.37;19.17;;;;;;;5.22;87.26;98912.69;5054764;28;20751;-86
2022/04/06 02:58:04;;;;;;;31.97;17.17;;;;;;;4.68;86.70;98797.59;5052945;28;20237;-89
2022/04/06 03:00:32;;;;;;;32.03;16.67;;;;;;;3.37;85.79;98580.50;5053571;28;20150;-85
2022/04/06 03:02:58;;;;;;;32.73;15.70;;;;;;;5.28;87.38;98946.53;5053843;28;20167;-85
2022/04/06 03:05:24;;;;;;;29.23;15.43;;;;;;;5.88;87.04;99039.50;5052431;28;20498;-86
2022/04/06 03:07:51;;;;;;;52.60;30.83;;;;;;;3.79;87.35;98663.03;5052614;28;20694;-86
2022/04/06 03:10:16;;;;;;;57.67;27.20;;;;;;;5.81;86.69;98991.34;5053478;28;20404;-85
2022/04/06 03:12:42;;;;;;;83.57;45.33;;;;;;;6.03;86.88;99062.13;5053115;28;20504;-85
2022/04/06 03:15:08;;;;;;;80.10;43.77;;;;;;;4.22;86.68;98753.16;5053635;28;20252;-86
2022/04/06 03:17:35;;;;;;;34.57;19.23;;;;;;;5.86;86.48;99033.53;5055737;28;20231;-88
2022/04/06 03:20:02;;;;;;;52.57;31.93;;;;;;;5.08;88.14;98956.22;5054152;28;20451;-86
2022/04/06 03:22:28;;;;;;;60.83;35.53;;;;;;;4.02;88.05;98752.88;5052674;28;20400;-86
2022/04/06 03:24:53;;;;;;;95.37;55.70;;;;;;;2.76;89.21;98596.88;5050927;28;20446;-84
2022/04/06 03:27:19;;;;;;;52.57;30.80;;;;;;;3.77;88.43;98724.66;5049313;28;20227;-86
2022/04/06 03:29:44;;;;;;;51.53;28.40;;;;;;;4.27;88.23;98787.72;5033348;28;20634;-85
2022/04/06 03:32:10;;;;;;;35.10;18.63;;;;;;;5.58;87.15;99039.38;5032061;28;20179;-85
2022/04/06 03:34:36;;;;;;;30.13;17.50;;;;;;;5.68;86.97;99049.19;5048013;28;20294;-85
2022/04/06 03:37:01;;;;;;;47.53;26.00;;;;;;;5.08;85.93;98947.03;5053017;28;20207;-85
2022/04/06 03:39:27;;;;;;;39.03;21.53;;;;;;;3.78;84.92;98721.41;5052687;28;20419;-85
2022/04/06 03:41:52;;;;;;;42.77;24.73;;;;;;;4.17;85.29;98813.00;5053090;28;20247;-86
2022/04/06 03:44:18;;;;;;;36.27;21.00;;;;;;;4.21;85.24;98839.94;5038606;28;20191;-85
2022/04/06 03:46:43;;;;;;;39.80;20.90;;;;;;;4.54;85.19;98893.69;5047143;28;20225;-84
2022/04/06 03:49:09;;;;;;;35.23;19.10;;;;;;;4.27;85.30;98847.84;5031909;28;20173;-84
2022/04/06 03:51:35;;;;;;;35.53;19.53;;;;;;;5.38;85.34;99022.34;5031537;28;20233;-86
2022/04/06 03:54:00;;;;;;;36.50;18.13;;;;;;;2.94;84.74;98615.47;5032490;28;20255;-85
2022/04/06 03:56:26;;;;;;;27.13;14.70;;;;;;;3.31;85.75;98683.56;5032473;28;20198;-86
2022/04/06 03:58:52;;;;;;;29.80;15.70;;;;;;;4.65;86.60;98916.09;5032058;28;20165;-84
2022/04/06 04:01:17;;;;;;;25.23;14.73;;;;;;;3.58;85.64;98741.88;5031313;28;20174;-85
2022/04/06 04:03:43;;;;;;;37.53;18.90;;;;;;;2.52;86.47;98572.91;5036288;28;20587;-85
2022/04/06 04:06:08;;;;;;;45.40;23.37;;;;;;;4.04;86.52;98831.44;5052043;28;20219;-84
2022/04/06 04:08:34;;;;;;;86.60;49.33;;;;;;;4.01;86.30;98833.75;5052018;28;20179;-86
2022/04/06 04:10:59;;;;;;;100.30;58.93;;;;;;;4.64;86.89;98951.13;5052835;28;20556;-86
2022/04/06 04:13:24;;;;;;;47.73;27.53;;;;;;;3.80;87.28;98807.44;5053748;28;20166;-85
2022/04/06 04:15:50;;;;;;;71.77;37.80;;;;;;;5.58;86.27;99067.00;5062918;28;20153;-86
2022/04/06 04:18:15;;;;;;;58.17;29.93;;;;;;;2.70;85.67;98590.63;5068833;28;20213;-86
2022/04/06 04:20:45;;;;;;;90.23;36.60;;;;;;;5.43;86.05;99058.59;5047958;28;20195;-86
2022/04/06 04:23:11;;;;;;;53.53;23.30;;;;;;;4.16;84.78;98864.75;5014451;28;20610;-84
2022/04/06 04:25:36;;;;;;;37.40;18.93;;;;;;;5.04;84.91;98975.22;5013023;28;20406;-86
2022/04/06 04:28:02;;;;;;;47.70;23.17;;;;;;;4.03;83.72;98779.66;5027891;28;20416;-85
2022/04/06 04:30:27;;;;;;;80.73;35.50;;;;;;;5.48;83.64;99042.16;5011679;28;20636;-85
2022/04/06 04:32:53;;;;;;;87.33;42.17;;;;;;;4.84;83.22;98938.09;5015597;28;20170;-86
2022/04/06 04:35:19;;;;;;;63.13;31.50;;;;;;;5.73;84.20;99105.56;5020027;28;20184;-87
2022/04/06 04:37:44;;;;;;;49.83;26.10;;;;;;;3.06;82.52;98610.34;5012961;28;20289;-86
2022/04/06 04:40:10;;;;;;;52.63;26.63;;;;;;;3.73;82.66;98720.28;5012697;28;20170;-85
2022/04/06 04:42:35;;;;;;;44.77;24.13;;;;;;;4.02;81.53;98759.50;5012195;28;20559;-87
2022/04/06 04:45:01;;;;;;;46.23;23.47;;;;;;;4.24;81.41;98805.06;5011469;28;20262;-85
2022/04/06 04:47:27;;;;;;;41.53;20.10;;;;;;;5.58;81.65;99027.72;5011544;28;20663;-86
2022/04/06 04:49:52;;;;;;;37.80;19.43;;;;;;;4.40;81.29;98809.31;5012392;28;20163;-86
2022/04/06 04:52:18;;;;;;;38.67;19.60;;;;;;;3.83;81.01;98704.13;5011149;28;20204;-86
2022/04/06 04:54:43;;;;;;;40.53;20.60;;;;;;;5.25;79.49;98887.75;5026896;28;20170;-87
2022/04/06 04:57:09;;;;;;;48.83;22.83;;;;;;;3.58;79.17;98604.25;5012296;28;20232;-86
2022/04/06 04:59:34;;;;;;;51.20;26.97;;;;;;;6.34;79.63;99072.22;5012346;28;20591;-87
2022/04/06 05:01:59;;;;;;;42.80;17.77;;;;;;;5.85;78.68;98979.06;5010611;28;20171;-85
2022/04/06 05:04:25;;;;;;;41.07;17.30;;;;;;;6.64;78.60;99130.84;5011773;28;20254;-85
2022/04/06 05:06:50;;;;;;;35.03;16.67;;;;;;;6.38;78.90;99076.63;5027391;28;20179;-85
2022/04/06 05:09:17;;;;;;;38.97;16.67;;;;;;;5.44;78.48;98907.25;5026790;28;20216;-86
2022/04/06 05:11:43;;;;;;;43.17;20.03;;;;;;;6.18;78.24;99015.19;5011598;28;20171;-86
2022/04/06 05:14:09;;;;;;;41.40;19.97;;;;;;;4.92;77.22;98766.38;5027006;28;20475;-86
2022/04/06 05:16:35;;;;;;;49.53;24.13;;;;;;;4.87;77.04;98762.75;5013487;28;20282;-86
2022/04/06 05:19:01;;;;;;;51.23;26.67;;;;;;;7.22;76.94;99144.88;5002923;28;20445;-86
2022/04/06 05:21:27;;;;;;;55.90;26.93;;;;;;;6.13;76.11;98958.81;5029677;28;20259;-85
2022/04/06 05:23:52;;;;;;;44.83;24.73;;;;;;;4.80;77.80;98785.75;5031680;28;20166;-85
2022/04/06 05:26:17;;;;;;;41.80;22.43;;;;;;;4.96;77.80;98810.91;5029661;28;20162;-85
2022/04/06 05:28:43;;;;;;;47.70;23.63;;;;;;;4.62;77.74;98758.00;5030063;28;20193;-87
2022/04/06 05:31:08;;;;;;;41.30;21.30;;;;;;;4.94;78.31;98832.53;5031786;28;20311;-87
2022/04/06 05:33:33;;;;;;;87.60;36.37;;;;;;;5.50;78.12;98905.06;5031000;28;20267;-88
2022/04/06 05:35:59;;;;;;;262.97;115.77;;;;;;;5.42;78.10;98868.63;5031596;28;20553;-87
2022/04/06 05:38:25;;;;;;;363.33;175.17;;;;;;;7.28;77.70;99153.59;5030269;28;20194;-88
2022/04/06 05:40:51;;;;;;;177.97;91.00;;;;;;;4.60;77.46;98693.53;5030842;28;20642;-89
2022/04/06 05:43:17;;;;;;;92.57;47.83;;;;;;;6.15;77.08;98932.13;5031069;28;20433;-87
2022/04/06 05:45:42;;;;;;;97.37;52.07;;;;;;;7.63;76.36;99137.81;5047025;28;20780;-87
2022/04/06 05:48:09;;;;;;;33.90;20.67;;;;;;;7.96;75.50;99158.78;5035523;28;20217;-88
2022/04/06 05:50:34;;;;;;;29.87;15.70;;;;;;;6.22;74.40;98825.25;5036030;28;20214;-88
2022/04/06 05:53:00;;;;;;;33.03;14.93;;;;;;;5.89;74.49;98786.69;5048318;28;21035;-85
2022/04/06 05:55:25;;;;;;;26.53;14.07;;;;;;;5.67;74.60;98706.00;5053029;28;20162;-87
2022/04/06 05:57:50;;;;;;;28.53;17.77;;;;;;;8.68;72.64;99156.47;5035329;28;20296;-87
2022/04/06 06:00:17;;;;;;;28.53;16.90;;;;;;;6.89;71.33;98857.16;5040787;28;20645;-86
2022/04/06 06:02:43;;;;;;;30.03;19.23;;;;;;;7.75;71.37;98967.09;5069085;28;20185;-87
2022/04/06 06:05:09;;;;;;;32.63;14.83;;;;;;;8.74;69.22;99086.94;5043783;28;20432;-87
2022/04/06 06:07:34;;;;;;;28.63;14.87;;;;;;;6.80;68.74;98713.31;5041541;28;20437;-87
2022/04/06 06:10:02;;;;;;;24.77;14.20;;;;;;;9.73;66.77;99151.94;5027877;28;20662;-85
2022/04/06 06:12:27;;;;;;;27.17;14.13;;;;;;;8.18;64.77;98867.47;5009780;28;20229;-86
2022/04/06 06:14:53;;;;;;;26.17;14.27;;;;;;;9.74;65.09;99104.00;5018360;28;20174;-87
2022/04/06 06:17:18;;;;;;;23.03;12.50;;;;;;;8.44;63.99;98911.50;5026304;28;20201;-87
2022/04/06 06:19:44;;;;;;;26.10;13.93;;;;;;;7.62;65.74;98824.59;4996536;28;20538;-85
2022/04/06 06:22:09;;;;;;;28.07;13.53;;;;;;;8.88;67.33;99032.91;5016257;28;20198;-85
2022/04/06 06:24:34;;;;;;;22.40;13.07;;;;;;;6.64;66.59;98656.41;5038447;28;20244;-86
2022/04/06 06:27:00;;;;;;;25.67;13.93;;;;;;;8.15;64.76;98813.53;5026621;28;20170;-86
2022/04/06 06:29:25;;;;;;;26.50;13.43;;;;;;;9.66;63.64;99034.59;5023850;28;20622;-89
2022/04/06 06:31:51;;;;;;;22.33;13.30;;;;;;;9.32;62.63;98958.19;5019549;28;20183;-86
2022/04/06 06:34:16;;;;;;;23.43;14.20;;;;;;;8.81;63.45;98887.06;5025410;28;20191;-87
2022/04/06 06:36:42;;;;;;;22.33;13.53;;;;;;;8.43;65.80;98861.88;5006772;28;20732;-88
2022/04/06 06:39:08;;;;;;;22.97;13.10;;;;;;;7.95;65.99;98764.75;5034971;28;20181;-89
2022/04/06 06:41:35;;;;;;;21.57;12.20;;;;;;;10.12;65.97;99107.22;5018535;28;20651;-88
2022/04/06 06:44:01;;;;;;;24.07;13.53;;;;;;;10.66;65.23;99145.75;5016723;28;20735;-88
2022/04/06 06:46:29;;;;;;;20.23;11.43;;;;;;;10.44;63.91;99165.94;5027172;28;20222;-88
2022/04/06 06:49:02;;;;;;;24.60;12.90;;;;;;;9.14;62.77;98849.72;5047804;28;20357;-89
2022/04/06 06:51:30;;;;;;;25.17;12.20;;;;;;;11.60;59.86;99153.47;5030473;28;20635;-88
2022/04/06 06:53:55;;;;;;;21.17;12.43;;;;;;;10.70;58.24;98941.69;5026836;28;20686;-87
2022/04/06 06:56:20;;;;;;;19.47;11.03;;;;;;;10.95;57.48;98930.75;5035440;28;20194;-88
2022/04/06 06:58:46;;;;;;;14.67;9.60;;;;;;;10.44;56.56;98912.03;5036518;28;20202;-88
2022/04/06 07:01:11;;;;;;;15.23;9.87;;;;;;;10.48;57.93;98939.19;5021715;28;20592;-89
2022/04/06 07:03:37;;;;;;;17.17;9.97;;;;;;;10.41;56.90;98856.28;5021604;28;20190;-87
2022/04/06 07:06:02;;;;;;;14.27;10.10;;;;;;;10.53;57.15;98867.69;5016553;28;20197;-87
2022/04/06 07:08:28;;;;;;;17.47;9.80;;;;;;;10.43;55.74;98824.28;5021216;28;20230;-88
2022/04/06 07:10:53;;;;;;;15.37;9.70;;;;;;;11.20;55.93;98951.03;5021219;28;20186;-88
2022/04/06 07:13:19;;;;;;;18.13;9.83;;;;;;;11.16;54.51;98853.78;5018001;28;20182;-90
2022/04/06 07:15:44;;;;;;;17.40;10.77;;;;;;;12.08;53.46;98918.41;5022116;28;20301;-88
2022/04/06 07:18:11;;;;;;;16.80;10.33;;;;;;;12.85;52.23;98948.56;5027428;28;20294;-89
2022/04/06 07:20:37;;;;;;;21.10;10.27;;;;;;;14.33;50.65;99150.91;5012135;28;20246;-89
2022/04/06 07:23:03;;;;;;;17.50;8.93;;;;;;;12.83;50.07;98899.34;5018167;28;20185;-89
2022/04/06 07:25:29;;;;;;;17.13;9.70;;;;;;;13.23;50.43;98926.72;5020582;28;20206;-90
2022/04/06 07:27:55;;;;;;;17.23;10.20;;;;;;;13.49;50.77;98959.59;5025921;28;20197;-90
2022/04/06 07:30:20;;;;;;;14.97;9.57;;;;;;;14.74;49.57;99162.94;5026202;28;20179;-88
2022/04/06 07:32:46;;;;;;;15.40;8.30;;;;;;;12.54;49.39;98841.88;5030757;28;20181;-89
2022/04/06 07:35:11;;;;;;;11.70;8.53;;;;;;;13.81;48.99;99026.53;5035717;28;20177;-90
2022/04/06 07:37:39;;;;;;;14.40;7.50;;;;;;;11.73;49.24;98715.31;5015788;28;20214;-90
2022/04/06 07:40:07;;;;;;;13.87;8.30;;;;;;;14.51;48.89;99158.97;5014468;28;20186;-90
2022/04/06 07:42:35;;;;;;;13.50;7.70;;;;;;;12.01;48.92;98701.72;5017589;28;20601;-90
2022/04/06 07:45:01;;;;;;;17.07;8.47;;;;;;;13.90;47.25;98952.13;5021888;28;20181;-90
2022/04/06 07:47:34;;;;;;;13.60;8.00;;;;;;;14.97;46.10;99050.44;5027674;28;20672;-90
2022/04/06 07:50:01;;;;;;;14.03;7.40;;;;;;;15.59;45.28;99105.25;5013229;28;20625;-90
2022/04/06 07:52:30;;;;;;;10.53;7.50;;;;;;;14.61;44.86;98967.28;5016594;28;20181;-89
2022/04/06 07:54:56;;;;;;;11.90;7.60;;;;;;;15.44;44.61;99079.44;5015070;28;20261;-88
2022/04/06 07:57:27;;;;;;;12.13;7.60;;;;;;;15.03;43.69;99025.91;5018478;28;20293;-89
2022/04/06 07:59:54;;;;;;;9.53;6.80;;;;;;;15.74;42.76;99154.88;5016936;28;20191;-88
2022/04/06 08:02:20;;;;;;;11.10;7.80;;;;;;;15.03;42.43;98958.75;5021229;28;21389;-88
2022/04/06 08:04:45;;;;;;;13.27;7.70;;;;;;;15.60;41.50;98993.00;5036007;28;20186;-90
2022/04/06 08:07:11;;;;;;;15.60;9.40;;;;;;;16.04;40.95;99069.50;5029833;28;20201;-89
2022/04/06 08:09:36;;;;;;;12.53;7.90;;;;;;;15.09;40.57;98921.50;5012838;28;20671;-89
2022/04/06 08:12:02;;;;;;;17.70;10.10;;;;;;;16.61;40.96;99152.19;5014425;28;20190;-88
2022/04/06 08:14:28;;;;;;;13.57;7.37;;;;;;;15.74;40.75;99003.47;5018207;28;20186;-89
2022/04/06 08:16:55;;;;;;;13.87;7.20;;;;;;;17.05;40.04;99158.84;5022542;28;20280;-89
2022/04/06 08:19:22;;;;;;;12.50;7.83;;;;;;;16.33;40.01;99017.16;5016508;28;20185;-88
2022/04/06 08:21:51;;;;;;;11.47;7.63;;;;;;;16.40;39.43;98975.50;5015588;28;20178;-88
2022/04/06 08:24:17;;;;;;;13.10;8.53;;;;;;;17.53;39.48;99161.19;5025024;28;20272;-90
2022/04/06 08:26:42;;;;;;;10.17;7.23;;;;;;;17.53;39.45;99129.56;5021028;28;20497;-89
2022/04/06 08:29:09;;;;;;;16.80;9.13;;;;;;;17.76;39.21;99164.03;5017708;28;20236;-89
2022/04/06 08:31:34;;;;;;;12.20;7.60;;;;;;;17.33;38.03;99024.41;5014938;28;20183;-89
2022/04/06 08:34:00;;;;;;;13.43;7.87;;;;;;;17.92;37.55;99016.50;5020078;28;20716;-90
2022/04/06 08:36:26;;;;;;;12.70;7.60;;;;;;;17.82;36.38;99005.31;5017352;28;20673;-89
2022/04/06 08:38:51;;;;;;;16.97;9.10;;;;;;;18.77;36.89;99161.56;5022878;28;20174;-88
2022/04/06 08:41:20;;;;;;;12.90;8.10;;;;;;;18.94;35.93;99159.97;5021767;28;20190;-88
2022/04/06 08:43:46;;;;;;;13.30;7.50;;;;;;;18.12;36.12;99055.94;5008638;28;20179;-89
2022/04/06 08:46:12;;;;;;;14.67;8.00;;;;;;;17.78;36.31;98934.44;5018647;28;20192;-88
2022/04/06 08:48:39;;;;;;;11.90;6.77;;;;;;;17.38;35.65;98886.31;5021815;28;20205;-89
2022/04/06 08:51:09;;;;;;;9.73;6.60;;;;;;;17.68;35.74;98948.03;5026819;28;20235;-88
2022/04/06 08:53:39;;;;;;;10.43;6.03;;;;;;;18.84;35.75;99151.34;5016357;28;20227;-88
2022/04/06 08:56:06;;;;;;;13.60;7.00;;;;;;;17.35;36.26;98919.53;5017152;28;20219;-89
2022/04/06 08:58:32;;;;;;;12.87;6.70;;;;;;;18.12;36.02;99061.94;5009678;28;20241;-89
2022/04/06 09:00:57;;;;;;;10.90;6.93;;;;;;;17.78;35.83;98946.38;4998960;28;20222;-88
2022/04/06 09:03:23;;;;;;;11.20;7.20;;;;;;;18.13;35.93;98984.19;5017692;28;20194;-89
2022/04/06 09:06:06;;;;;;;12.60;7.50;;;;;;;18.93;35.63;99131.72;5009732;28;20201;-89
2022/04/06 09:08:42;;;;;;;9.80;6.57;;;;;;;18.98;35.35;99120.66;5019011;28;20187;-90
2022/04/06 09:11:15;;;;;;;13.00;7.53;;;;;;;18.87;35.32;99081.25;5015813;28;20219;-89
2022/04/06 09:13:42;;;;;;;10.37;6.80;;;;;;;18.84;34.98;98994.06;5031326;28;20196;-90
2022/04/06 09:16:09;;;;;;;10.57;6.70;;;;;;;18.82;34.65;98996.59;5003498;28;20193;-90
2022/04/06 09:18:38;;;;;;;10.90;6.90;;;;;;;19.53;34.49;99108.13;5010719;28;21312;-89
2022/04/06 09:21:04;;;;;;;11.10;7.17;;;;;;;19.82;34.01;99103.91;4983879;28;20230;-89
2022/04/06 09:23:33;;;;;;;10.10;6.50;;;;;;;19.93;33.62;99104.78;5016692;28;20194;-89
2022/04/06 09:26:07;;;;;;;13.33;6.90;;;;;;;20.24;33.43;99104.00;5019703;28;20201;-89
2022/04/06 09:28:37;;;;;;;11.33;6.83;;;;;;;19.67;32.84;98926.63;5016753;28;20178;-89
2022/04/06 09:31:02;;;;;;;12.27;6.80;;;;;;;21.17;32.25;99095.31;5025991;28;20281;-89
2022/04/06 09:33:29;;;;;;;14.43;8.10;;;;;;;20.50;32.17;98939.38;5033950;28;20217;-90
2022/04/06 09:35:55;;;;;;;12.43;6.70;;;;;;;21.38;31.60;99089.19;5034393;28;20713;-89
2022/04/06 09:38:26;;;;;;;12.53;7.20;;;;;;;19.86;32.23;98882.13;5034385;28;20199;-90
2022/04/06 09:41:06;;;;;;;14.17;6.30;;;;;;;19.52;32.29;98908.69;5018785;28;20628;-89
2022/04/06 09:43:35;;;;;;;11.90;6.47;;;;;;;19.83;32.69;98987.47;5014157;28;20276;-89
2022/04/06 09:49:19;;;;;;;14.40;6.40;;;;;;;20.26;31.79;98970.31;4972659;28;20207;-91
2022/04/06 09:51:51;;;;;;;10.83;6.30;;;;;;;20.74;31.36;99025.94;4988104;28;20195;-89
2022/04/06 09:54:17;;;;;;;10.50;6.40;;;;;;;21.13;31.50;99069.56;4961909;28;20255;-90
2022/04/06 09:56:44;;;;;;;11.17;6.40;;;;;;;20.20;31.72;98909.44;4964531;28;20301;-89
2022/04/06 09:59:11;;;;;;;9.47;6.07;;;;;;;21.13;30.94;98974.28;4961580;28;20200;-89
2022/04/06 10:01:40;;;;;;;9.80;6.37;;;;;;;20.29;31.02;98891.47;4966235;28;20278;-88
2022/04/06 10:04:11;;;;;;;9.57;6.30;;;;;;;21.69;30.70;99062.41;4966473;28;20274;-88
2022/04/06 10:06:38;;;;;;;11.77;6.60;;;;;;;21.41;29.80;98987.88;4970967;28;20735;-88
2022/04/06 10:09:07;;;;;;;11.03;6.00;;;;;;;20.81;29.38;98917.81;4981064;28;20191;-87
2022/04/06 10:11:37;;;;;;;10.53;6.30;;;;;;;21.73;29.23;99056.34;4961867;28;20188;-88
2022/04/06 10:14:04;;;;;;;9.53;6.27;;;;;;;20.82;29.51;98923.84;4965109;28;20187;-89
2022/04/06 10:16:30;;;;;;;10.43;6.23;;;;;;;21.30;29.53;98989.66;4959390;28;20179;-88
2022/04/06 10:18:57;;;;;;;10.57;6.10;;;;;;;20.89;28.30;98964.97;4976943;28;20523;-87
2022/04/06 10:21:39;;;;;;;12.00;6.23;;;;;;;20.83;28.23;98923.81;4971242;28;20752;-88
2022/04/06 10:24:32;;;;;;;8.70;5.57;;;;;;;21.55;28.32;98983.50;4987427;28;20245;-88
2022/04/06 10:27:16;;;;;;;7.57;5.50;;;;;;;21.72;28.27;99028.03;5015752;28;20550;-89
2022/04/06 10:30:13;;;;;;;9.90;5.17;;;;;;;21.89;28.16;99030.53;5035421;28;20182;-89
2022/04/06 10:32:43;;;;;;;9.57;4.90;;;;;;;21.66;27.10;99008.31;5022592;28;20182;-89
2022/04/06 10:35:34;;;;;;;10.73;5.43;;;;;;;21.36;28.06;99007.66;5020893;28;20182;-88
2022/04/06 10:37:59;;;;;;;9.03;5.73;;;;;;;21.40;28.19;99017.09;5012104;28;20199;-88
2022/04/06 10:40:48;;;;;;;9.57;5.90;;;;;;;19.94;28.46;98736.50;5021211;28;20202;-89
2022/04/06 10:43:34;;;;;;;7.73;5.20;;;;;;;20.28;28.33;98833.19;5032841;28;20185;-88
2022/04/06 10:46:00;;;;;;;10.17;5.40;;;;;;;21.12;28.61;99003.50;5004301;28;20198;-88
2022/04/06 10:48:26;;;;;;;9.80;5.07;;;;;;;21.17;27.86;99004.31;4994630;28;20255;-86
2022/04/06 10:50:51;;;;;;;9.60;4.73;;;;;;;20.62;27.78;98874.19;5000740;28;20257;-87
2022/04/06 10:53:20;;;;;;;9.40;4.60;;;;;;;21.38;27.48;98999.03;4980767;28;20420;-88
2022/04/06 10:56:12;;;;;;;6.87;4.60;;;;;;;20.03;27.50;98718.47;4997247;28;20187;-88
2022/04/06 10:58:55;;;;;;;7.07;4.87;;;;;;;21.85;27.29;99006.44;4975521;28;20215;-88
2022/04/06 11:01:31;;;;;;;6.67;4.67;;;;;;;21.52;27.46;99002.41;4998931;28;20182;-88
2022/04/06 11:04:01;;;;;;;10.57;4.70;;;;;;;21.17;27.47;98940.81;4983183;28;20670;-88
2022/04/06 11:06:43;;;;;;;6.77;4.37;;;;;;;21.15;27.67;98998.34;4985918;28;20311;-87
2022/04/06 11:12:14;;;;;;;9.30;4.50;;;;;;;21.60;27.36;98969.72;4999614;28;20205;-87
2022/04/06 11:14:42;;;;;;;9.07;5.50;;;;;;;21.80;27.69;98985.03;5002538;28;20194;-88
2022/04/06 11:17:42;;;;;;;8.83;4.67;;;;;;;21.72;28.06;98953.31;4998750;28;20608;-87
2022/04/06 11:20:29;;;;;;;7.97;5.30;;;;;;;20.35;29.39;98828.88;4925383;29;20216;-87
2022/04/06 11:22:57;;;;;;;8.67;5.10;;;;;;;21.75;29.13;98973.91;4969447;28;20188;-87
2022/04/06 11:25:28;;;;;;;11.40;4.80;;;;;;;20.78;29.29;98848.38;4956278;29;20585;-87
2022/04/06 11:27:55;;;;;;;7.60;5.03;;;;;;;21.65;29.03;98962.78;4942759;29;20240;-87
2022/04/06 11:30:26;;;;;;;7.57;4.53;;;;;;;21.44;27.94;98916.59;4951261;29;20610;-87
2022/04/06 11:32:51;;;;;;;7.73;4.87;;;;;;;21.41;27.97;98969.84;4968560;28;20181;-87
2022/04/06 11:35:17;;;;;;;7.60;4.67;;;;;;;21.44;28.09;98964.69;4950272;29;20830;-87
2022/04/06 11:37:46;;;;;;;8.20;4.37;;;;;;;21.27;27.31;98908.13;4940548;29;20221;-87